createdAt,value
2019-01-21T00:02:22.855Z,19.90
2019-01-21T00:07:24.238Z,19.90
2019-01-21T00:12:25.570Z,19.80
2019-01-21T00:17:26.970Z,19.80
2019-01-21T00:22:28.318Z,19.80
2019-01-21T00:27:29.665Z,19.90
2019-01-21T00:32:31.060Z,19.90
2019-01-21T00:37:32.495Z,19.90
2019-01-21T00:42:33.886Z,19.90
2019-01-21T00:47:35.230Z,19.90
2019-01-21T00:52:36.682Z,19.90
2019-01-21T00:57:38.182Z,19.90
2019-01-21T01:02:39.552Z,19.90
2019-01-21T01:07:41.103Z,19.90
2019-01-21T01:12:42.577Z,19.90
2019-01-21T01:17:43.918Z,19.80
2019-01-21T01:22:45.471Z,19.80
2019-01-21T01:27:46.947Z,19.70
2019-01-21T01:32:48.347Z,19.70
2019-01-21T01:37:49.678Z,19.70
2019-01-21T01:42:51.175Z,19.70
2019-01-21T01:47:57.449Z,19.60
2019-01-21T01:52:59.178Z,19.70
2019-01-21T01:58:00.719Z,19.70
2019-01-21T02:03:02.536Z,19.80
2019-01-21T02:08:04.021Z,19.80
2019-01-21T02:13:05.712Z,19.80
2019-01-21T02:18:07.243Z,19.70
2019-01-21T02:23:12.577Z,19.80
2019-01-21T02:28:35.121Z,19.70
2019-01-21T02:34:05.087Z,19.80
2019-01-21T02:39:21.468Z,19.80
2019-01-21T02:44:45.076Z,19.80
2019-01-21T02:50:16.775Z,19.70
2019-01-21T02:55:39.091Z,19.70
2019-01-21T03:01:03.909Z,19.60
2019-01-21T03:06:19.912Z,19.60
2019-01-21T03:12:02.998Z,19.60
2019-01-21T03:17:37.507Z,19.50
2019-01-21T03:23:02.381Z,19.60
2019-01-21T03:28:21.821Z,19.70
2019-01-21T03:33:37.861Z,19.70
2019-01-21T03:38:56.898Z,19.70
2019-01-21T03:44:09.711Z,19.70
2019-01-21T03:49:32.049Z,19.70
2019-01-21T03:54:33.933Z,19.70
2019-01-21T04:00:07.386Z,19.70
2019-01-21T04:05:18.333Z,19.70
2019-01-21T04:11:18.471Z,19.70
2019-01-21T04:16:31.380Z,19.70
2019-01-21T04:21:54.660Z,19.60
2019-01-21T04:27:23.152Z,19.50
2019-01-21T04:32:54.655Z,19.50
2019-01-21T04:38:01.818Z,19.40
2019-01-21T04:43:35.991Z,19.40
2019-01-21T04:49:04.343Z,19.50
2019-01-21T04:54:41.639Z,19.60
2019-01-21T04:59:51.434Z,19.60
2019-01-21T05:05:04.340Z,19.50
2019-01-21T05:10:32.507Z,19.50
2019-01-21T05:15:43.484Z,19.50
2019-01-21T05:21:21.275Z,19.50
2019-01-21T05:26:34.392Z,19.60
2019-01-21T05:32:02.841Z,19.70
2019-01-21T05:37:22.714Z,19.60
2019-01-21T05:42:41.514Z,19.60
2019-01-21T05:48:04.053Z,19.50
2019-01-21T05:53:17.351Z,19.40
2019-01-21T05:58:47.327Z,19.40
2019-01-21T06:04:37.007Z,19.40
2019-01-21T06:10:00.931Z,19.40
2019-01-21T06:15:23.513Z,19.30
2019-01-21T06:20:54.909Z,19.40
2019-01-21T06:26:32.214Z,19.40
2019-01-21T06:31:53.825Z,19.40
2019-01-21T06:37:21.828Z,19.40
2019-01-21T06:42:28.954Z,19.40
2019-01-21T06:47:54.159Z,19.50
2019-01-21T06:53:36.420Z,19.50
2019-01-21T06:58:52.411Z,19.60
2019-01-21T07:04:19.479Z,19.60
2019-01-21T07:10:06.511Z,19.60
2019-01-21T07:15:18.886Z,19.50
2019-01-21T07:20:55.864Z,19.50
2019-01-21T07:26:29.902Z,19.40
2019-01-21T07:31:39.805Z,19.40
2019-01-21T07:36:58.782Z,19.30
2019-01-21T07:42:17.584Z,19.30
2019-01-21T07:47:42.787Z,19.30
2019-01-21T07:53:08.063Z,19.40
2019-01-21T07:58:45.724Z,19.40
2019-01-21T08:04:04.605Z,19.40
2019-01-21T08:09:36.528Z,19.40
2019-01-21T08:14:46.449Z,19.40
2019-01-21T08:19:59.490Z,19.50
2019-01-21T08:25:23.019Z,19.50
2019-01-21T08:30:45.426Z,19.50
2019-01-21T08:35:56.503Z,19.50
2019-01-21T08:41:07.761Z,19.50
2019-01-21T08:46:26.791Z,19.50
2019-01-21T08:51:56.331Z,19.50
2019-01-21T08:57:09.128Z,19.40
2019-01-21T09:02:31.518Z,19.50
2019-01-21T09:07:53.455Z,19.40
2019-01-21T09:13:18.327Z,19.40
2019-01-21T09:18:39.959Z,19.50
2019-01-21T09:24:10.160Z,19.60
2019-01-21T09:29:35.125Z,19.60
2019-01-21T09:34:57.408Z,19.60
2019-01-21T09:40:27.723Z,19.70
2019-01-21T09:45:54.699Z,19.70
2019-01-21T09:51:01.540Z,19.70
2019-01-21T09:56:04.352Z,19.80
2019-01-21T10:01:07.753Z,19.90
2019-01-21T10:06:09.402Z,19.90
2019-01-21T10:11:16.594Z,20.00
2019-01-21T10:16:28.978Z,20.00
2019-01-21T10:21:50.539Z,20.00
2019-01-21T10:27:12.735Z,20.10
2019-01-21T10:32:55.203Z,20.10
2019-01-21T10:38:23.799Z,20.10
2019-01-21T10:44:08.725Z,20.20
2019-01-21T10:49:48.135Z,20.20
2019-01-21T10:55:29.703Z,20.30
2019-01-21T11:01:02.698Z,20.30
2019-01-21T11:06:09.762Z,20.30
2019-01-21T11:11:28.656Z,20.40
2019-01-21T11:16:44.710Z,20.40
2019-01-21T11:21:51.863Z,20.50
2019-01-21T11:27:04.731Z,20.60
2019-01-21T11:32:43.287Z,20.60
2019-01-21T11:38:20.847Z,20.60
2019-01-21T11:43:46.179Z,20.70
2019-01-21T11:49:28.583Z,20.70
2019-01-21T11:55:09.434Z,20.70
2019-01-21T12:00:50.207Z,20.70
2019-01-21T12:05:56.580Z,20.70
2019-01-21T12:11:12.809Z,20.70
2019-01-21T12:16:47.480Z,20.70
2019-01-21T12:22:03.863Z,20.70
2019-01-21T12:27:32.386Z,20.70
2019-01-21T12:33:19.044Z,20.70
2019-01-21T12:38:54.971Z,20.80
2019-01-21T12:44:29.436Z,20.80
2019-01-21T12:49:55.036Z,20.90
2019-01-21T12:55:10.107Z,20.90
2019-01-21T13:00:41.646Z,20.90
2019-01-21T13:05:48.747Z,20.90
2019-01-21T13:10:55.848Z,20.90
2019-01-21T13:16:26.557Z,20.80
2019-01-21T13:22:22.753Z,20.80
2019-01-21T13:27:47.992Z,20.80
2019-01-21T13:33:27.220Z,20.80
2019-01-21T13:38:55.642Z,20.80
2019-01-21T13:44:14.330Z,20.80
2019-01-21T13:49:30.169Z,20.80
2019-01-21T13:54:40.259Z,20.80
2019-01-21T14:00:13.383Z,20.80
2019-01-21T14:05:47.965Z,20.80
2019-01-21T14:11:01.271Z,20.80
2019-01-21T14:16:41.321Z,20.80
2019-01-21T14:22:03.724Z,20.90
2019-01-21T14:27:36.832Z,20.90
2019-01-21T14:33:05.023Z,20.90
2019-01-21T14:38:15.275Z,20.80
2019-01-21T14:43:41.888Z,20.80
2019-01-21T14:49:21.275Z,20.80
2019-01-21T14:54:36.700Z,20.80
2019-01-21T15:00:13.640Z,20.80
2019-01-21T15:05:47.903Z,20.80
2019-01-21T15:11:31.159Z,20.80
2019-01-21T15:16:50.368Z,20.80
2019-01-21T15:22:06.085Z,20.80
2019-01-21T15:27:36.340Z,20.70
2019-01-21T15:32:46.631Z,20.70
2019-01-21T15:38:08.968Z,20.70
2019-01-21T15:43:31.226Z,20.70
2019-01-21T15:48:44.031Z,20.70
2019-01-21T15:54:19.662Z,20.70
2019-01-21T15:59:41.706Z,20.70
2019-01-21T16:05:19.465Z,20.70
2019-01-21T16:10:50.919Z,20.70
2019-01-21T16:16:23.800Z,20.70
2019-01-21T16:21:36.729Z,20.70
2019-01-21T16:26:43.816Z,20.60
2019-01-21T16:31:49.514Z,20.60
2019-01-21T16:36:59.771Z,20.60
2019-01-21T16:42:13.340Z,20.60
2019-01-21T16:47:14.922Z,20.50
2019-01-21T16:52:16.339Z,20.50
2019-01-21T16:57:17.731Z,20.80
2019-01-21T17:02:19.164Z,21.10
2019-01-21T17:07:20.638Z,21.30
2019-01-21T17:12:21.991Z,21.50
2019-01-21T17:17:23.403Z,21.60
2019-01-21T17:22:24.823Z,21.30
2019-01-21T17:27:26.227Z,21.30
2019-01-21T17:32:27.657Z,21.50
2019-01-21T17:37:29.075Z,21.60
2019-01-21T17:42:30.521Z,21.60
2019-01-21T17:47:31.950Z,21.40
2019-01-21T17:52:33.361Z,21.30
2019-01-21T17:57:35.662Z,21.20
2019-01-21T18:02:37.108Z,21.10
2019-01-21T18:07:39.599Z,20.90
2019-01-21T18:12:41.042Z,20.90
2019-01-21T18:17:42.439Z,20.80
2019-01-21T18:22:43.952Z,20.80
2019-01-21T18:27:45.543Z,20.70
2019-01-21T18:32:46.989Z,20.70
2019-01-21T18:37:49.709Z,20.70
2019-01-21T18:42:52.285Z,20.60
2019-01-21T18:47:53.742Z,20.60
2019-01-21T18:52:55.238Z,20.60
2019-01-21T18:57:56.763Z,20.70
2019-01-21T19:02:58.180Z,20.60
2019-01-21T19:07:59.611Z,20.60
2019-01-21T19:13:01.095Z,20.80
2019-01-21T19:18:03.164Z,20.80
2019-01-21T19:23:04.658Z,20.90
2019-01-21T19:28:06.034Z,20.90
2019-01-21T19:33:07.554Z,20.80
2019-01-21T19:38:09.046Z,20.80
2019-01-21T19:43:10.383Z,20.90
2019-01-21T19:48:11.783Z,20.80
2019-01-21T19:53:13.119Z,20.80
2019-01-21T19:58:14.602Z,20.80
2019-01-21T20:03:15.978Z,20.80
2019-01-21T20:08:17.454Z,20.90
2019-01-21T20:13:18.908Z,20.90
2019-01-21T20:18:21.297Z,20.80
2019-01-21T20:23:22.630Z,20.80
2019-01-21T20:28:24.030Z,20.90
2019-01-21T20:33:25.406Z,20.80
2019-01-21T20:38:26.847Z,20.80
2019-01-21T20:43:28.219Z,20.80
2019-01-21T20:48:29.712Z,20.80
2019-01-21T20:53:31.154Z,20.80
2019-01-21T20:58:33.556Z,20.80
2019-01-21T21:03:34.992Z,20.80
2019-01-21T21:08:36.360Z,20.80
2019-01-21T21:13:37.720Z,20.80
2019-01-21T21:18:39.093Z,20.80
2019-01-21T21:23:40.471Z,20.80
2019-01-21T21:28:41.896Z,20.70
2019-01-21T21:33:43.353Z,20.70
2019-01-21T21:38:44.723Z,20.80
2019-01-21T21:43:46.112Z,20.80
2019-01-21T21:48:47.479Z,20.70
2019-01-21T21:53:49.052Z,20.80
2019-01-21T21:58:50.414Z,20.80
2019-01-21T22:03:51.781Z,20.70
2019-01-21T22:08:53.111Z,20.70
2019-01-21T22:13:54.616Z,20.70
2019-01-21T22:18:55.941Z,20.70
2019-01-21T22:23:57.416Z,20.70
2019-01-21T22:28:59.112Z,20.70
2019-01-21T22:34:00.445Z,20.70
2019-01-21T22:39:05.344Z,20.70
2019-01-21T22:44:06.760Z,20.60
2019-01-21T22:49:08.178Z,20.70
2019-01-21T22:54:09.611Z,20.70
2019-01-21T22:59:10.943Z,20.70
2019-01-21T23:04:12.348Z,20.70
2019-01-21T23:09:13.775Z,20.70
2019-01-21T23:14:15.475Z,20.60
2019-01-21T23:19:16.810Z,20.70
2019-01-21T23:24:18.193Z,20.70
2019-01-21T23:29:19.586Z,20.70
2019-01-21T23:34:21.039Z,20.60
2019-01-21T23:39:22.372Z,20.70
2019-01-21T23:44:23.760Z,20.70
2019-01-21T23:49:25.238Z,20.70
2019-01-21T23:54:26.672Z,20.70
2019-01-21T23:59:28.066Z,20.70
